sensor_id;sensor_type;location;lat;lon;timestamp;pressure;altitude;pressure_sealevel;temperature;humidity
73316;BME280;61545;53.726;-0.444;2023-07-22T00:00:20;1008.5;;;14.1;100.0
73316;BME280;61545;53.726;-0.444;2023-07-22T00:05:20;1008.5;;;14.0;100.0
73316;BME280;61545;53.726;-0.444;2023-07-22T00:10:20;1008.6;;;14.0;100.0
73316;BME280;61545;53.726;-0.444;2023-07-22T00:15:20;1008.5;;;14.0;100.0
73316;BME280;61545;53.726;-0.444;2023-07-22T00:20:20;1008.5;;;14.0;100.0
73316;BME280;61545;53.726;-0.444;2023-07-22T00:25:20;1008.5;;;14.0;100.0
73316;BME280;61545;53.726;-0.444;2023-07-22T00:30:20;1008.4;;;14.1;100.0
73316;BME280;61545;53.726;-0.444;2023-07-22T00:35:20;1008.3;;;14.1;100.0
73316;BME280;61545;53.726;-0.444;2023-07-22T00:40:20;1008.2;;;unknown;100.0
73316;BME280;61545;53.726;-0.444;2023-07-22T00:45:20;1008.2;;;13.9;100.0
73316;BME280;61545;53.726;-0.444;2023-07-22T00:50:20;1008.2;;;13.9;100.0
73316;BME280;61545;53.726;-0.444;2023-07-22T00:55:20;1008.2;;;13.9;100.0
73316;BME280;61545;53.726;-0.444;2023-07-22T01:00:20;1008.2;;;13.9;100.0
73316;BME280;61545;53.726;-0.444;2023-07-22T01:05:20;1008.1;;;13.9;100.0
73316;BME280;61545;53.726;-0.444;2023-07-22T01:10:21;1008.1;;;13.9;100.0
73316;BME280;61545;53.726;-0.444;2023-07-22T01:15:20;1008.0;;;13.9;100.0
73316;BME280;61545;53.726;-0.444;2023-07-22T01:20:20;1007.9;;;unknown;100.0
73316;BME280;61545;53.726;-0.444;2023-07-22T01:25:20;1007.8;;;13.8;100.0
73316;BME280;61545;53.726;-0.444;2023-07-22T01:30:20;1007.8;;;13.7;100.0
73316;BME280;61545;53.726;-0.444;2023-07-22T01:35:20;1007.7;;;13.7;100.0
73316;BME280;61545;53.726;-0.444;2023-07-22T01:40:20;1007.6;;;13.7;100.0
73316;BME280;61545;53.726;-0.444;2023-07-22T01:45:20;1007.6;;;13.7;100.0
73316;BME280;61545;53.726;-0.444;2023-07-22T01:50:20;1007.6;;;13.7;100.0
73316;BME280;61545;53.726;-0.444;2023-07-22T01:55:20;1007.5;;;13.9;100.0
73316;BME280;61545;53.726;-0.444;2023-07-22T02:00:20;1007.4;;;13.7;100.0
73316;BME280;61545;53.726;-0.444;2023-07-22T02:05:20;1007.3;;;13.9;100.0
73316;BME280;61545;53.726;-0.444;2023-07-22T02:10:20;1007.3;;;13.9;100.0
73316;BME280;61545;53.726;-0.444;2023-07-22T02:15:20;1007.3;;;13.9;100.0
73316;BME280;61545;53.726;-0.444;2023-07-22T02:20:20;1007.3;;;13.8;100.0
73316;BME280;61545;53.726;-0.444;2023-07-22T02:25:20;1007.1;;;13.7;100.0
73316;BME280;61545;53.726;-0.444;2023-07-22T02:30:20;1007.0;;;13.7;100.0
73316;BME280;61545;53.726;-0.444;2023-07-22T02:35:20;1007.1;;;13.8;100.0
73316;BME280;61545;53.726;-0.444;2023-07-22T02:40:20;1007.1;;;13.7;100.0
73316;BME280;61545;53.726;-0.444;2023-07-22T02:45:20;1007.0;;;13.7;100.0
73316;BME280;61545;53.726;-0.444;2023-07-22T02:50:20;1006.9;;;13.7;100.0
73316;BME280;61545;53.726;-0.444;2023-07-22T02:55:20;1006.8;;;13.7;100.0
73316;BME280;61545;53.726;-0.444;2023-07-22T03:00:20;1006.8;;;13.9;100.0
73316;BME280;61545;53.726;-0.444;2023-07-22T03:05:20;1006.8;;;13.7;100.0
73316;BME280;61545;53.726;-0.444;2023-07-22T03:10:20;1006.8;;;13.6;100.0
73316;BME280;61545;53.726;-0.444;2023-07-22T03:15:20;1006.7;;;13.7;100.0
73316;BME280;61545;53.726;-0.444;2023-07-22T03:20:20;1006.8;;;13.8;100.0
73316;BME280;61545;53.726;-0.444;2023-07-22T03:25:20;1006.8;;;14.0;100.0
73316;BME280;61545;53.726;-0.444;2023-07-22T03:30:21;1006.7;;;14.0;100.0
73316;BME280;61545;53.726;-0.444;2023-07-22T03:35:20;1006.7;;;13.9;100.0
73316;BME280;61545;53.726;-0.444;2023-07-22T03:40:20;1006.7;;;13.7;100.0
73316;BME280;61545;53.726;-0.444;2023-07-22T03:45:20;1006.6;;;unknown;100.0
73316;BME280;61545;53.726;-0.444;2023-07-22T03:50:20;1006.6;;;13.7;100.0
73316;BME280;61545;53.726;-0.444;2023-07-22T03:55:20;1006.5;;;13.9;100.0
73316;BME280;61545;53.726;-0.444;2023-07-22T04:00:20;1006.5;;;14.0;100.0
73316;BME280;61545;53.726;-0.444;2023-07-22T04:05:20;1006.4;;;13.7;100.0
73316;BME280;61545;53.726;-0.444;2023-07-22T04:10:20;1006.3;;;13.9;100.0
73316;BME280;61545;53.726;-0.444;2023-07-22T04:15:20;1006.2;;;13.7;100.0
73316;BME280;61545;53.726;-0.444;2023-07-22T04:20:20;1006.2;;;13.7;100.0
73316;BME280;61545;53.726;-0.444;2023-07-22T04:25:20;1006.2;;;13.9;100.0
73316;BME280;61545;53.726;-0.444;2023-07-22T04:30:20;1006.1;;;13.9;100.0
73316;BME280;61545;53.726;-0.444;2023-07-22T04:35:20;1006.1;;;13.8;100.0
73316;BME280;61545;53.726;-0.444;2023-07-22T04:40:20;1006.0;;;13.9;100.0
73316;BME280;61545;53.726;-0.444;2023-07-22T04:45:20;1006.0;;;13.7;100.0
73316;BME280;61545;53.726;-0.444;2023-07-22T04:50:20;1005.9;;;13.7;100.0
73316;BME280;61545;53.726;-0.444;2023-07-22T04:55:20;1005.9;;;13.7;100.0
73316;BME280;61545;53.726;-0.444;2023-07-22T05:00:20;1006.0;;;13.7;100.0
73316;BME280;61545;53.726;-0.444;2023-07-22T05:05:20;1006.0;;;13.8;100.0
73316;BME280;61545;53.726;-0.444;2023-07-22T05:10:20;1005.9;;;13.7;100.0
73316;BME280;61545;53.726;-0.444;2023-07-22T05:15:20;1005.9;;;13.7;100.0
73316;BME280;61545;53.726;-0.444;2023-07-22T05:20:20;1005.8;;;13.9;100.0
73316;BME280;61545;53.726;-0.444;2023-07-22T05:25:20;1005.8;;;13.8;100.0
73316;BME280;61545;53.726;-0.444;2023-07-22T05:30:20;1005.7;;;unknown;100.0
73316;BME280;61545;53.726;-0.444;2023-07-22T05:35:20;1005.6;;;13.6;100.0
73316;BME280;61545;53.726;-0.444;2023-07-22T05:40:20;1005.6;;;13.8;100.0
73316;BME280;61545;53.726;-0.444;2023-07-22T05:45:20;1005.5;;;13.7;100.0
73316;BME280;61545;53.726;-0.444;2023-07-22T05:50:20;1005.5;;;13.7;100.0
73316;BME280;61545;53.726;-0.444;2023-07-22T05:55:20;1005.5;;;13.7;100.0
73316;BME280;61545;53.726;-0.444;2023-07-22T06:00:20;1005.4;;;13.9;100.0
73316;BME280;61545;53.726;-0.444;2023-07-22T06:05:20;1005.3;;;13.9;100.0
73316;BME280;61545;53.726;-0.444;2023-07-22T06:10:20;1005.3;;;13.7;100.0
73316;BME280;61545;53.726;-0.444;2023-07-22T06:15:20;1005.2;;;13.9;100.0
73316;BME280;61545;53.726;-0.444;2023-07-22T06:20:20;1005.2;;;13.9;100.0
73316;BME280;61545;53.726;-0.444;2023-07-22T06:25:20;1005.2;;;13.9;100.0
73316;BME280;61545;53.726;-0.444;2023-07-22T06:30:20;1005.1;;;13.9;100.0
73316;BME280;61545;53.726;-0.444;2023-07-22T06:35:20;1005.0;;;13.7;100.0
73316;BME280;61545;53.726;-0.444;2023-07-22T06:40:20;1005.0;;;13.9;100.0
73316;BME280;61545;53.726;-0.444;2023-07-22T06:45:20;1005.1;;;13.9;100.0
73316;BME280;61545;53.726;-0.444;2023-07-22T06:50:20;1005.1;;;14.0;100.0
73316;BME280;61545;53.726;-0.444;2023-07-22T06:55:20;1005.2;;;13.9;100.0
73316;BME280;61545;53.726;-0.444;2023-07-22T07:00:20;1005.1;;;14.0;100.0
73316;BME280;61545;53.726;-0.444;2023-07-22T07:05:20;1005.1;;;13.8;100.0
73316;BME280;61545;53.726;-0.444;2023-07-22T07:10:20;1005.0;;;14.0;100.0
73316;BME280;61545;53.726;-0.444;2023-07-22T07:15:20;1004.9;;;14.0;100.0
73316;BME280;61545;53.726;-0.444;2023-07-22T07:20:20;1004.8;;;14.0;100.0
73316;BME280;61545;53.726;-0.444;2023-07-22T07:25:20;1004.8;;;14.1;100.0
73316;BME280;61545;53.726;-0.444;2023-07-22T07:30:20;1004.8;;;14.0;100.0
73316;BME280;61545;53.726;-0.444;2023-07-22T07:35:20;1004.8;;;14.0;100.0
73316;BME280;61545;53.726;-0.444;2023-07-22T07:40:20;1004.9;;;14.0;100.0
73316;BME280;61545;53.726;-0.444;2023-07-22T07:45:20;1004.9;;;14.0;100.0
73316;BME280;61545;53.726;-0.444;2023-07-22T07:50:20;1004.8;;;14.0;100.0
73316;BME280;61545;53.726;-0.444;2023-07-22T07:55:20;1004.7;;;14.0;100.0
73316;BME280;61545;53.726;-0.444;2023-07-22T08:00:20;1004.8;;;13.9;100.0
73316;BME280;61545;53.726;-0.444;2023-07-22T08:05:20;1004.7;;;14.0;100.0
73316;BME280;61545;53.726;-0.444;2023-07-22T08:10:20;1004.7;;;14.0;100.0
73316;BME280;61545;53.726;-0.444;2023-07-22T08:15:20;1004.6;;;13.9;100.0
73316;BME280;61545;53.726;-0.444;2023-07-22T08:20:20;1004.6;;;14.0;100.0
73316;BME280;61545;53.726;-0.444;2023-07-22T08:25:20;1004.5;;;13.9;100.0
73316;BME280;61545;53.726;-0.444;2023-07-22T08:30:20;1004.4;;;14.0;100.0
73316;BME280;61545;53.726;-0.444;2023-07-22T08:35:20;1004.3;;;14.1;100.0
73316;BME280;61545;53.726;-0.444;2023-07-22T08:40:20;1004.3;;;14.0;100.0
73316;BME280;61545;53.726;-0.444;2023-07-22T08:45:20;1004.2;;;13.9;100.0
73316;BME280;61545;53.726;-0.444;2023-07-22T08:50:20;1004.2;;;14.0;100.0
73316;BME280;61545;53.726;-0.444;2023-07-22T08:55:20;1004.2;;;13.9;100.0
73316;BME280;61545;53.726;-0.444;2023-07-22T09:00:20;1004.2;;;13.9;100.0
73316;BME280;61545;53.726;-0.444;2023-07-22T09:05:20;1004.1;;;13.7;100.0
73316;BME280;61545;53.726;-0.444;2023-07-22T09:10:20;1004.1;;;13.7;100.0
73316;BME280;61545;53.726;-0.444;2023-07-22T09:15:20;1004.0;;;13.9;100.0
73316;BME280;61545;53.726;-0.444;2023-07-22T09:20:20;1004.0;;;14.0;100.0
73316;BME280;61545;53.726;-0.444;2023-07-22T09:25:22;1003.9;;;14.0;100.0
73316;BME280;61545;53.726;-0.444;2023-07-22T09:30:21;1004.0;;;14.2;100.0
73316;BME280;61545;53.726;-0.444;2023-07-22T09:35:20;1003.9;;;14.1;100.0
73316;BME280;61545;53.726;-0.444;2023-07-22T09:40:21;1003.9;;;14.0;100.0
73316;BME280;61545;53.726;-0.444;2023-07-22T09:45:22;1003.9;;;14.0;100.0
73316;BME280;61545;53.726;-0.444;2023-07-22T09:50:21;1003.9;;;14.0;100.0
73316;BME280;61545;53.726;-0.444;2023-07-22T09:55:21;1003.9;;;14.2;100.0
73316;BME280;61545;53.726;-0.444;2023-07-22T10:00:21;1003.9;;;14.3;100.0
73316;BME280;61545;53.726;-0.444;2023-07-22T10:05:20;1003.9;;;14.2;100.0
73316;BME280;61545;53.726;-0.444;2023-07-22T10:10:21;1003.8;;;14.4;100.0
73316;BME280;61545;53.726;-0.444;2023-07-22T10:15:20;1003.8;;;14.4;100.0
73316;BME280;61545;53.726;-0.444;2023-07-22T10:20:20;1003.7;;;14.4;100.0
73316;BME280;61545;53.726;-0.444;2023-07-22T10:25:21;1003.7;;;14.3;100.0
73316;BME280;61545;53.726;-0.444;2023-07-22T10:30:20;1003.7;;;unknown;100.0
73316;BME280;61545;53.726;-0.444;2023-07-22T10:35:22;1003.6;;;14.4;100.0
73316;BME280;61545;53.726;-0.444;2023-07-22T10:40:25;1003.7;;;14.5;100.0
73316;BME280;61545;53.726;-0.444;2023-07-22T10:45:25;1003.6;;;14.4;100.0
73316;BME280;61545;53.726;-0.444;2023-07-22T10:50:20;1003.5;;;14.5;100.0
73316;BME280;61545;53.726;-0.444;2023-07-22T10:55:20;1003.5;;;14.5;100.0
73316;BME280;61545;53.726;-0.444;2023-07-22T11:00:20;1003.4;;;14.5;100.0
73316;BME280;61545;53.726;-0.444;2023-07-22T11:05:20;1003.4;;;14.5;100.0
73316;BME280;61545;53.726;-0.444;2023-07-22T11:10:20;1003.3;;;14.4;100.0
73316;BME280;61545;53.726;-0.444;2023-07-22T11:15:20;1003.2;;;14.5;100.0
73316;BME280;61545;53.726;-0.444;2023-07-22T11:20:21;1003.2;;;14.4;100.0
73316;BME280;61545;53.726;-0.444;2023-07-22T11:25:20;1003.2;;;14.5;100.0
73316;BME280;61545;53.726;-0.444;2023-07-22T11:30:23;1003.1;;;14.5;100.0
73316;BME280;61545;53.726;-0.444;2023-07-22T11:35:20;1003.1;;;14.5;100.0
73316;BME280;61545;53.726;-0.444;2023-07-22T11:40:20;1003.0;;;unknown;100.0
73316;BME280;61545;53.726;-0.444;2023-07-22T11:45:20;1002.9;;;14.7;100.0
73316;BME280;61545;53.726;-0.444;2023-07-22T11:50:30;1002.9;;;unknown;100.0
73316;BME280;61545;53.726;-0.444;2023-07-22T11:55:22;1002.8;;;14.7;100.0
73316;BME280;61545;53.726;-0.444;2023-07-22T12:00:20;1002.8;;;14.7;100.0
73316;BME280;61545;53.726;-0.444;2023-07-22T12:05:21;1002.7;;;unknown;100.0
73316;BME280;61545;53.726;-0.444;2023-07-22T12:10:20;1002.8;;;14.9;100.0
73316;BME280;61545;53.726;-0.444;2023-07-22T12:15:21;1002.7;;;14.9;100.0
73316;BME280;61545;53.726;-0.444;2023-07-22T12:20:23;1002.6;;;14.9;100.0
73316;BME280;61545;53.726;-0.444;2023-07-22T12:25:20;1002.6;;;15.0;100.0
73316;BME280;61545;53.726;-0.444;2023-07-22T12:30:21;1002.5;;;14.9;100.0
73316;BME280;61545;53.726;-0.444;2023-07-22T12:35:20;1002.5;;;15.0;100.0
73316;BME280;61545;53.726;-0.444;2023-07-22T12:40:20;1002.5;;;14.9;100.0
73316;BME280;61545;53.726;-0.444;2023-07-22T12:45:20;1002.5;;;14.9;100.0
73316;BME280;61545;53.726;-0.444;2023-07-22T12:50:20;1002.5;;;14.9;100.0
73316;BME280;61545;53.726;-0.444;2023-07-22T12:55:20;1002.4;;;14.9;100.0
73316;BME280;61545;53.726;-0.444;2023-07-22T13:00:20;1002.3;;;15.0;100.0
73316;BME280;61545;53.726;-0.444;2023-07-22T13:05:20;1002.3;;;15.1;100.0
73316;BME280;61545;53.726;-0.444;2023-07-22T13:10:21;1002.3;;;15.0;100.0
73316;BME280;61545;53.726;-0.444;2023-07-22T13:15:20;1002.2;;;15.0;100.0
73316;BME280;61545;53.726;-0.444;2023-07-22T13:20:20;1002.1;;;15.0;100.0
73316;BME280;61545;53.726;-0.444;2023-07-22T13:25:20;1002.1;;;15.0;100.0
73316;BME280;61545;53.726;-0.444;2023-07-22T13:30:20;1002.0;;;15.1;100.0
73316;BME280;61545;53.726;-0.444;2023-07-22T13:35:20;1002.0;;;15.2;100.0
73316;BME280;61545;53.726;-0.444;2023-07-22T13:40:20;1001.9;;;15.2;100.0
73316;BME280;61545;53.726;-0.444;2023-07-22T13:45:20;1001.9;;;15.3;100.0
73316;BME280;61545;53.726;-0.444;2023-07-22T13:50:20;1001.8;;;15.3;100.0
73316;BME280;61545;53.726;-0.444;2023-07-22T13:55:20;1001.8;;;15.4;100.0
73316;BME280;61545;53.726;-0.444;2023-07-22T14:00:20;1001.7;;;15.3;100.0
73316;BME280;61545;53.726;-0.444;2023-07-22T14:05:20;1001.6;;;15.6;100.0
73316;BME280;61545;53.726;-0.444;2023-07-22T14:10:20;1001.7;;;15.7;100.0
73316;BME280;61545;53.726;-0.444;2023-07-22T14:15:20;1001.5;;;15.5;100.0
73316;BME280;61545;53.726;-0.444;2023-07-22T14:20:20;1001.5;;;15.6;100.0
73316;BME280;61545;53.726;-0.444;2023-07-22T14:25:20;1001.5;;;15.5;100.0
73316;BME280;61545;53.726;-0.444;2023-07-22T14:30:20;1001.4;;;15.5;100.0
73316;BME280;61545;53.726;-0.444;2023-07-22T14:35:20;1001.4;;;15.3;100.0
73316;BME280;61545;53.726;-0.444;2023-07-22T14:40:20;1001.4;;;15.3;100.0
73316;BME280;61545;53.726;-0.444;2023-07-22T14:45:20;1001.4;;;15.4;100.0
73316;BME280;61545;53.726;-0.444;2023-07-22T14:50:20;1001.4;;;15.4;100.0
73316;BME280;61545;53.726;-0.444;2023-07-22T14:55:20;1001.3;;;15.5;100.0
73316;BME280;61545;53.726;-0.444;2023-07-22T15:00:20;1001.2;;;15.4;100.0
73316;BME280;61545;53.726;-0.444;2023-07-22T15:05:20;1001.2;;;15.5;100.0
73316;BME280;61545;53.726;-0.444;2023-07-22T15:10:20;1001.1;;;15.5;100.0
73316;BME280;61545;53.726;-0.444;2023-07-22T15:15:20;1001.0;;;15.5;100.0
73316;BME280;61545;53.726;-0.444;2023-07-22T15:20:20;1000.9;;;15.5;100.0
73316;BME280;61545;53.726;-0.444;2023-07-22T15:25:20;1000.9;;;15.5;100.0
73316;BME280;61545;53.726;-0.444;2023-07-22T15:30:20;1000.8;;;15.6;100.0
73316;BME280;61545;53.726;-0.444;2023-07-22T15:35:20;1000.7;;;15.6;100.0
73316;BME280;61545;53.726;-0.444;2023-07-22T15:40:20;1000.7;;;15.6;100.0
73316;BME280;61545;53.726;-0.444;2023-07-22T15:45:21;1000.6;;;15.7;100.0
73316;BME280;61545;53.726;-0.444;2023-07-22T15:50:20;1000.5;;;15.6;100.0
73316;BME280;61545;53.726;-0.444;2023-07-22T15:55:20;1000.5;;;15.5;100.0
73316;BME280;61545;53.726;-0.444;2023-07-22T16:00:20;1000.5;;;15.5;100.0
73316;BME280;61545;53.726;-0.444;2023-07-22T16:05:20;1000.5;;;15.5;100.0
73316;BME280;61545;53.726;-0.444;2023-07-22T16:10:20;1000.4;;;15.7;100.0
73316;BME280;61545;53.726;-0.444;2023-07-22T16:15:20;1000.4;;;15.6;100.0
73316;BME280;61545;53.726;-0.444;2023-07-22T16:20:20;1000.3;;;15.5;100.0
73316;BME280;61545;53.726;-0.444;2023-07-22T16:25:20;1000.2;;;15.6;100.0
73316;BME280;61545;53.726;-0.444;2023-07-22T16:30:20;1000.2;;;15.7;100.0
73316;BME280;61545;53.726;-0.444;2023-07-22T16:35:20;1000.1;;;15.6;100.0
73316;BME280;61545;53.726;-0.444;2023-07-22T16:40:20;1000.0;;;15.7;100.0
73316;BME280;61545;53.726;-0.444;2023-07-22T16:45:21;1000.0;;;15.7;100.0
73316;BME280;61545;53.726;-0.444;2023-07-22T16:50:20;999.9;;;15.7;100.0
73316;BME280;61545;53.726;-0.444;2023-07-22T16:55:20;999.9;;;15.7;100.0
73316;BME280;61545;53.726;-0.444;2023-07-22T17:00:20;999.9;;;15.7;100.0
73316;BME280;61545;53.726;-0.444;2023-07-22T17:05:20;999.8;;;15.7;100.0
73316;BME280;61545;53.726;-0.444;2023-07-22T17:10:20;999.7;;;15.7;100.0
73316;BME280;61545;53.726;-0.444;2023-07-22T17:15:20;999.7;;;15.7;100.0
73316;BME280;61545;53.726;-0.444;2023-07-22T17:20:20;999.7;;;15.6;100.0
73316;BME280;61545;53.726;-0.444;2023-07-22T17:25:20;999.6;;;15.6;100.0
73316;BME280;61545;53.726;-0.444;2023-07-22T17:30:20;999.6;;;15.6;100.0
73316;BME280;61545;53.726;-0.444;2023-07-22T17:35:20;999.5;;;15.7;100.0
73316;BME280;61545;53.726;-0.444;2023-07-22T17:40:20;999.5;;;15.7;100.0
73316;BME280;61545;53.726;-0.444;2023-07-22T17:45:21;999.4;;;15.7;100.0
73316;BME280;61545;53.726;-0.444;2023-07-22T17:50:20;999.4;;;15.7;100.0
73316;BME280;61545;53.726;-0.444;2023-07-22T17:55:20;999.3;;;15.6;100.0
73316;BME280;61545;53.726;-0.444;2023-07-22T18:00:20;999.2;;;15.6;100.0
73316;BME280;61545;53.726;-0.444;2023-07-22T18:05:20;999.2;;;15.7;100.0
73316;BME280;61545;53.726;-0.444;2023-07-22T18:10:20;999.1;;;15.7;100.0
73316;BME280;61545;53.726;-0.444;2023-07-22T18:15:20;999.0;;;15.7;100.0
73316;BME280;61545;53.726;-0.444;2023-07-22T18:20:20;999.0;;;15.7;100.0
73316;BME280;61545;53.726;-0.444;2023-07-22T18:25:21;999.0;;;15.7;100.0
73316;BME280;61545;53.726;-0.444;2023-07-22T18:30:20;999.0;;;15.7;100.0
73316;BME280;61545;53.726;-0.444;2023-07-22T18:35:20;999.0;;;unknown;100.0
73316;BME280;61545;53.726;-0.444;2023-07-22T18:40:20;998.9;;;15.7;100.0
73316;BME280;61545;53.726;-0.444;2023-07-22T18:45:20;998.8;;;15.7;100.0
73316;BME280;61545;53.726;-0.444;2023-07-22T18:50:20;998.8;;;15.8;100.0
73316;BME280;61545;53.726;-0.444;2023-07-22T18:55:21;998.7;;;15.9;100.0
73316;BME280;61545;53.726;-0.444;2023-07-22T19:00:20;998.7;;;15.9;100.0
73316;BME280;61545;53.726;-0.444;2023-07-22T19:05:20;998.6;;;15.7;100.0
73316;BME280;61545;53.726;-0.444;2023-07-22T19:10:20;998.6;;;15.8;100.0
73316;BME280;61545;53.726;-0.444;2023-07-22T19:15:20;998.5;;;15.8;100.0
73316;BME280;61545;53.726;-0.444;2023-07-22T19:20:20;998.5;;;15.8;100.0
73316;BME280;61545;53.726;-0.444;2023-07-22T19:25:21;998.4;;;15.8;100.0
73316;BME280;61545;53.726;-0.444;2023-07-22T19:30:20;998.3;;;15.8;100.0
73316;BME280;61545;53.726;-0.444;2023-07-22T19:35:20;998.2;;;15.8;100.0
73316;BME280;61545;53.726;-0.444;2023-07-22T19:40:21;998.2;;;15.8;100.0
73316;BME280;61545;53.726;-0.444;2023-07-22T19:45:21;998.1;;;15.9;100.0
73316;BME280;61545;53.726;-0.444;2023-07-22T19:50:21;998.1;;;15.8;100.0
73316;BME280;61545;53.726;-0.444;2023-07-22T19:55:20;998.1;;;15.9;100.0
73316;BME280;61545;53.726;-0.444;2023-07-22T20:00:21;998.1;;;15.9;100.0
73316;BME280;61545;53.726;-0.444;2023-07-22T20:05:21;998.0;;;15.9;100.0
73316;BME280;61545;53.726;-0.444;2023-07-22T20:10:21;998.0;;;15.9;100.0
73316;BME280;61545;53.726;-0.444;2023-07-22T20:15:21;998.0;;;15.9;100.0
73316;BME280;61545;53.726;-0.444;2023-07-22T20:20:21;998.0;;;15.9;100.0
73316;BME280;61545;53.726;-0.444;2023-07-22T20:25:21;997.9;;;15.9;100.0
73316;BME280;61545;53.726;-0.444;2023-07-22T20:30:21;997.9;;;16.0;100.0
73316;BME280;61545;53.726;-0.444;2023-07-22T20:35:21;997.9;;;15.9;100.0
73316;BME280;61545;53.726;-0.444;2023-07-22T20:40:21;997.9;;;unknown;100.0
73316;BME280;61545;53.726;-0.444;2023-07-22T20:45:21;997.8;;;15.9;100.0
73316;BME280;61545;53.726;-0.444;2023-07-22T20:50:21;997.8;;;15.9;100.0
73316;BME280;61545;53.726;-0.444;2023-07-22T20:55:21;997.8;;;unknown;100.0
73316;BME280;61545;53.726;-0.444;2023-07-22T21:00:21;997.8;;;unknown;100.0
73316;BME280;61545;53.726;-0.444;2023-07-22T21:05:21;997.7;;;16.0;100.0
73316;BME280;61545;53.726;-0.444;2023-07-22T21:10:21;997.7;;;16.0;100.0
73316;BME280;61545;53.726;-0.444;2023-07-22T21:15:21;997.6;;;15.9;100.0
73316;BME280;61545;53.726;-0.444;2023-07-22T21:20:21;997.5;;;15.9;100.0
73316;BME280;61545;53.726;-0.444;2023-07-22T21:25:21;997.5;;;15.9;100.0
73316;BME280;61545;53.726;-0.444;2023-07-22T21:30:21;997.5;;;16.0;100.0
73316;BME280;61545;53.726;-0.444;2023-07-22T21:35:21;997.4;;;16.0;100.0
73316;BME280;61545;53.726;-0.444;2023-07-22T21:40:21;997.4;;;16.0;100.0
73316;BME280;61545;53.726;-0.444;2023-07-22T21:45:21;997.3;;;16.0;100.0
73316;BME280;61545;53.726;-0.444;2023-07-22T21:50:21;997.3;;;16.0;100.0
73316;BME280;61545;53.726;-0.444;2023-07-22T21:55:21;997.3;;;16.0;100.0
73316;BME280;61545;53.726;-0.444;2023-07-22T22:00:21;997.1;;;16.0;100.0
73316;BME280;61545;53.726;-0.444;2023-07-22T22:05:21;997.1;;;16.0;100.0
73316;BME280;61545;53.726;-0.444;2023-07-22T22:10:21;997.1;;;unknown;100.0
73316;BME280;61545;53.726;-0.444;2023-07-22T22:15:21;997.0;;;16.0;100.0
73316;BME280;61545;53.726;-0.444;2023-07-22T22:20:21;997.0;;;16.0;100.0
73316;BME280;61545;53.726;-0.444;2023-07-22T22:25:21;996.9;;;unknown;100.0
73316;BME280;61545;53.726;-0.444;2023-07-22T22:30:21;996.9;;;16.0;100.0
73316;BME280;61545;53.726;-0.444;2023-07-22T22:35:21;996.9;;;16.0;100.0
73316;BME280;61545;53.726;-0.444;2023-07-22T22:40:22;996.8;;;16.0;100.0
73316;BME280;61545;53.726;-0.444;2023-07-22T22:45:21;996.8;;;16.0;100.0
73316;BME280;61545;53.726;-0.444;2023-07-22T22:50:21;996.7;;;unknown;100.0
73316;BME280;61545;53.726;-0.444;2023-07-22T22:55:21;996.7;;;16.0;100.0
73316;BME280;61545;53.726;-0.444;2023-07-22T23:00:21;996.6;;;16.0;100.0
73316;BME280;61545;53.726;-0.444;2023-07-22T23:05:21;996.5;;;16.0;100.0
73316;BME280;61545;53.726;-0.444;2023-07-22T23:10:21;996.5;;;16.0;100.0
73316;BME280;61545;53.726;-0.444;2023-07-22T23:15:21;996.5;;;15.9;100.0
73316;BME280;61545;53.726;-0.444;2023-07-22T23:20:21;996.4;;;15.9;100.0
73316;BME280;61545;53.726;-0.444;2023-07-22T23:25:21;996.4;;;unknown;100.0
73316;BME280;61545;53.726;-0.444;2023-07-22T23:30:21;996.3;;;16.0;100.0
73316;BME280;61545;53.726;-0.444;2023-07-22T23:35:21;996.2;;;15.9;100.0
73316;BME280;61545;53.726;-0.444;2023-07-22T23:40:21;996.2;;;15.9;100.0
73316;BME280;61545;53.726;-0.444;2023-07-22T23:45:21;996.2;;;15.9;100.0
73316;BME280;61545;53.726;-0.444;2023-07-22T23:50:21;996.1;;;15.9;100.0
73316;BME280;61545;53.726;-0.444;2023-07-22T23:55:21;996.0;;;15.9;100.0
